Station info - map view · info · telemetry · weather · raw · status · beacons · messages · bulletins · browse · moving · my account
Callsign, ship name or locator: Clear       
It is possible to search using wildcards (*?) after a prefix. Example: OH*
APRS station JH5CZP-9 - show graphs
Map loading...
Mic-E message: Off duty
Location: 34°40.92' N 135°11.92' E - locator PM74OQ33UQ - show map - static map
1.1 miles Southeast bearing 126° from Kōbe-shi, Hyōgo, Japan [?]
6.7 miles Southwest bearing 242° from Ashiya, Hyōgo, Japan
8.0 miles West bearing 253° from Nishinomiya, Hyōgo, Japan
17.3 miles West bearing 267° from Ōsaka-shi, Ōsaka, Japan
Last position: 2018-11-17 03:52:34 EST (27m8s ago)
2018-11-17 17:52:34 JST local time at Kōbe-shi, Japan [?]
Altitude: 30 ft
Course: 336°
Speed: 6 MPH
Device: Yaesu: FTM-400DR (rig)
Last path: JH5CZP-9>STTPY2 via WIDE1-1,WIDE2-1,qAR,JL3ZIW-10 (good)
Positions stored: 19907
Packet rate: 79 seconds between packets on average during 3854 seconds.
Stations near current position of JH5CZP-9 - show more
callsign distance last heard - EST      callsign distance last heard - EST
MIYAZAKI EXPRESS117.1 yards 124°2018-11-17 04:18:15 431477870 JP118.9 yards 123°2018-11-15 02:04:30
ATAGO251.4 yards 223°2018-11-17 03:26:08 431004324 JP252.3 yards 223°2018-11-16 13:49:25
KAMIWAKA302.4 yards 143°2018-11-17 04:15:15 TAISEI MARU471.7 yards 270°2018-11-16 11:42:08
SHIROCHIDORI0.3 miles 251°2018-11-17 03:49:11 KEIHO MARU0.4 miles 143°2018-11-16 05:17:16
JK3DBX0.5 miles 318°2018-11-16 04:45:20 JD1BOC-90.5 miles 295°2018-11-01 03:13:44
SHOHOMARU1.1 miles 201°2018-11-16 01:56:48 SHINKO MARU NO.31.2 miles 211°2018-11-15 23:21:27
ROKKOMARU1.3 miles 174°2018-11-16 01:00:41 7j3acr-I1.3 miles 280°2018-11-16 19:09:05
HOSHO MARU1.3 miles 64°2018-11-13 23:30:37 7J3ACR-71.3 miles 282°2018-11-14 16:37:35
DR.KAIYO1.3 miles 58°2018-11-16 00:59:41 KAIYO1.4 miles 191°2018-11-16 14:52:34
7J3ACR-101.5 miles 276°2018-11-14 03:28:57 TENSHO MARU NO.51.5 miles 213°2018-11-12 11:42:26
Stations which heard JH5CZP-9 directly on radio –
callsign pkts first heard - EST last heard longest (tx => rx) longest at - EST
JA2KWX-2 1 2018-11-17 01:33:43 2018-11-17 01:33:43 PM85JB > PM85IC 5.9 miles 322° 2018-11-17 01:33:43
JQ2GLP-2 4 2018-11-15 21:36:13 2018-11-17 00:14:11 PM84TV > PM84UT 9.8 miles 127° 2018-11-15 21:36:13
JN3VDE-10 9 2018-11-15 16:10:55 2018-11-17 03:22:36 PM74OQ > PM74RT 14.8 miles 63° 2018-11-15 16:10:55
JP2VWJ-10 1 2018-11-17 01:56:25 2018-11-17 01:56:25 PM84FW > PM84GN 27.2 miles 172° 2018-11-17 01:56:25
JK2KNR-10 9 2018-11-15 20:09:44 2018-11-15 20:41:29 PM85GH > PM85MF 25.9 miles 101° 2018-11-15 20:09:44
JL3YTN-10 1 2018-11-15 15:45:13 2018-11-15 15:45:13 PM74LN > PM74QG 29.2 miles 133° 2018-11-15 15:45:13
JA4YMC-10 3 2018-11-15 15:08:27 2018-11-15 15:34:55 PM74KL > PM65TA 79.7 miles 298° 2018-11-15 15:33:53
JJ2YGK-10 6 2018-11-15 19:58:56 2018-11-15 20:28:56 PM85FI > PM85IK 19.1 miles 75° 2018-11-15 19:58:56
JH3YBD-2 21 2018-11-15 14:34:52 2018-11-15 16:04:46 PM74GD > PM75HD 67.1 miles 6° 2018-11-15 14:57:42
JI3YVA-2 17 2018-11-15 14:46:44 2018-11-17 03:35:32 PM74EE > PM74IT 44.9 miles 23° 2018-11-15 14:46:44
JG2TYN-10 19 2018-11-15 21:18:57 2018-11-17 00:32:46 PM84TV > PM84QT 14.3 miles 249° 2018-11-17 00:14:41
JA2YEP-2 18 2018-11-15 20:01:02 2018-11-17 02:20:04 PM84PV > PM84GU 43.8 miles 265° 2018-11-15 21:16:20
JR2LGW-10 7 2018-11-15 21:35:41 2018-11-17 00:15:13 PM84TV > PM84VQ 18.5 miles 140° 2018-11-15 21:35:41
JR3YDV-10 17 2018-11-15 16:48:37 2018-11-17 02:53:28 PM74XX > PM74UX 12.3 miles 274° 2018-11-17 02:31:35
JJ2YKR-10 11 2018-11-15 20:26:20 2018-11-17 01:29:16 PM85KB > PM85LE 10.5 miles 25° 2018-11-17 01:29:16
JF3UYN-10 3 2018-11-17 03:19:34 2018-11-17 03:23:07 PM74QR > PM74OT 12.4 miles 300° 2018-11-17 03:19:34
JA4YYF-2 7 2018-11-15 14:36:07 2018-11-15 15:39:59 PM74LM > PM64RX 87.5 miles 292° 2018-11-15 15:39:59
JF3DTW-10 19 2018-11-17 01:28:45 2018-11-17 02:19:29 PM85KB > PM84GT 25.6 miles 229° 2018-11-17 01:28:45
JK2QUE-10 14 2018-11-15 20:50:24 2018-11-17 01:22:11 PM85NC > PM84QQ 34.8 miles 150° 2018-11-15 20:50:24
JL3ZCN-10 2 2018-11-15 15:44:21 2018-11-15 15:46:46 PM74LN > PM74PJ 21.3 miles 116° 2018-11-15 15:44:21
JO3HYR-10 25 2018-11-15 15:49:23 2018-11-17 03:27:27 PM74WX > PM74RL 40.8 miles 210° 2018-11-15 17:01:56
JA3VQW-10 16 2018-11-15 16:31:49 2018-11-17 03:08:46 PM74VX > PM74TT 15.6 miles 217° 2018-11-15 17:00:45
JR2LLI-10 3 2018-11-15 20:59:13 2018-11-15 21:08:52 PM85NA > PM84OW 7.8 miles 160° 2018-11-15 20:59:13
JE3ZQR-10 43 2018-11-15 16:52:13 2018-11-17 02:41:18 PM85DG > PM75XC 21.1 miles 241° 2018-11-15 19:46:48
JL3YCZ-2 45 2018-11-15 14:34:21 2018-11-17 03:50:54 PM74DG > PM74OC 57.2 miles 102° 2018-11-15 14:34:21
JA2YXC-10 9 2018-11-15 21:05:29 2018-11-17 01:45:44 PM85OA > PM85HA 31.9 miles 270° 2018-11-15 21:05:29
JE3XST-10 5 2018-11-15 16:58:09 2018-11-17 02:50:51 PM74WX > PM75UA 7.5 miles 284° 2018-11-17 02:42:26
JA2GTE-2 7 2018-11-15 19:57:37 2018-11-15 20:26:52 PM85EI > PM85JG 21.5 miles 105° 2018-11-15 19:57:37
JR5YEM-10 2 2018-11-15 14:38:12 2018-11-15 15:05:20 PM74HF > PM74ED 13.8 miles 254° 2018-11-15 15:05:20
JA5MSG-10 7 2018-11-15 14:49:54 2018-11-15 14:59:48 PM74GE > PM74FC 6.0 miles 232° 2018-11-15 14:59:48
JR5CFK 2 2018-11-15 14:35:36 2018-11-15 15:36:01 PM74KM > PM74BG 44.5 miles 250° 2018-11-15 15:36:01
JJ2YQW-2 41 2018-11-15 17:24:35 2018-11-17 02:00:48 PM85BB > PM85OL 70.2 miles 66° 2018-11-15 17:24:35
7J3ACR-2 8 2018-11-15 16:09:23 2018-11-17 03:48:51 PM74PR > PM74OQ 6.0 miles 256° 2018-11-15 16:14:14
JL3ZDB-2 8 2018-11-15 17:04:24 2018-11-17 02:41:56 PM74WX > PM85BC 16.2 miles 57° 2018-11-17 02:41:56
JR5YFF-10 9 2018-11-15 14:44:02 2018-11-15 14:59:17 PM74GE > PM74CA 23.2 miles 244° 2018-11-15 14:59:17
JL3ZIW-10 1 2018-11-17 03:52:34 2018-11-17 03:52:34 PM74OQ > PM74NE 33.9 miles 185° 2018-11-17 03:52:34

Only position packets which were originated by the station are shown here. The range statistics show some extra long hops, because some digipeaters do not correctly add themselves to the digipeater path. Please check the raw packets.
About this site
This page shows real-time information collected from the Automatic Position Reporting System Internet network (APRS-IS). APRS is used by amateur (ham) radio operators to transmit real-time position information, weather data, telemetry and messages over the radio. A vehicle equipped with a GPS receiver, a VHF transmitter or HF transceiver and a small computer device called a tracker transmits it's location, speed and course in a small data packet, which is then received by a nearby iGate receiving site which forwards the packet on the Internet. Systems connected to the Internet can send information on the APRS-IS without a radio transmitter, or collect and display information transmitted anywhere in the world.
FAQ · Blog · Discussion group · Linking to aprs.fi · AIS sites · Service status · Database statistics · Advertising on aprs.fi · Technical details · API · Change log · Planned changes · Credits and thanks · Terms Of Service · iPhone/iPad APRS